Open Door, Argentina
Current Conditions -  °F | °C
As of 1:00 PM on Wednesday 28 Jan 2015 (Local Time) from SADF Reporting Station
Moderate Rain Moderate Rain  
Wind Chill: 20°   Ceiling: 5000
Heat Index: 20°   Visibility: 4mi
Dew Point: 19°   Wind: 6mph
Humidity: 94%   Direction: 50°NE
Pressure: 29.85"   Gusts: NA
Location:  34.5°S, 59.1°W
Report Text: SADF 281600Z 05005KT 7000 RA FEW010 OVC05020/19 Q1011
Loading
Personal Weather Stations






























Interactive Weather Map New forecast layout! Learn more

10-Day Weather Forecast

Advertisements
Track Severe Weather on mobile